Time;durP1;ratioP1;P1;durP2;ratioP2;P2;SDS_P1;SDS_P2;PMS_P1;PMS_P2;Temp;Humidity;BMP_temperature;BMP_pressure;BME280_temperature;BME280_humidity;BME280_pressure;Samples;Min_cycle;Max_cycle;Signal;HPM_P1;HPM_P2
2020/12/19 00:02:09;;;;;;;2.63;2.43;;;13.30;98.70;;;14.38;53.66;101290.44;4851461;28;98198;-59
2020/12/19 00:04:35;;;;;;;3.33;2.80;;;13.60;99.90;;;14.46;52.65;101287.47;4862729;28;112096;-59
2020/12/19 00:07:01;;;;;;;8.63;7.73;;;13.80;99.70;;;14.38;50.34;101287.78;4857784;28;99151;-60
2020/12/19 00:09:27;;;;;;;7.20;5.90;;;13.80;98.20;;;14.51;52.63;101275.75;4871738;28;99643;-60
2020/12/19 00:11:54;;;;;;;8.00;7.20;;;13.90;98.80;;;14.54;48.78;101280.94;4890888;28;99088;-60
2020/12/19 00:14:20;;;;;;;6.23;5.63;;;14.20;96.90;;;14.72;52.41;101273.09;4873234;28;98354;-60
2020/12/19 00:16:47;;;;;;;6.83;6.13;;;14.20;98.80;;;14.64;49.27;101272.59;4879002;28;96783;-59
2020/12/19 00:19:13;;;;;;;7.10;5.37;;;14.20;97.40;;;14.75;48.99;101272.97;4843714;28;100359;-60
2020/12/19 00:21:39;;;;;;;7.30;6.53;;;14.30;97.20;;;14.80;51.45;101273.66;4882249;28;97313;-60
2020/12/19 00:24:06;;;;;;;6.40;5.47;;;14.30;97.30;;;14.86;51.77;101268.06;4844329;28;100606;-60
2020/12/19 00:26:38;;;;;;;4.83;4.40;;;14.40;97.90;;;14.85;50.01;101264.53;4862920;28;100984;-60
2020/12/19 00:29:06;;;;;;;7.10;6.40;;;14.40;97.30;;;14.76;50.87;101262.31;4856363;28;99727;-59
2020/12/19 00:31:33;;;;;;;8.13;6.97;;;14.40;96.90;;;14.56;49.16;101260.50;4861876;28;97534;-59
2020/12/19 00:33:59;;;;;;;4.93;4.50;;;14.00;97.10;;;14.80;52.08;101260.38;4861465;28;104089;-59
2020/12/19 00:36:26;;;;;;;6.17;5.33;;;14.20;98.90;;;14.69;50.95;101249.34;4873863;28;99006;-59
2020/12/19 00:38:52;;;;;;;3.27;2.83;;;14.20;97.90;;;14.69;52.47;101244.03;4844291;28;101129;-59
2020/12/19 00:41:21;;;;;;;7.83;6.87;;;14.10;98.50;;;14.46;49.93;101242.34;4856192;28;98766;-58
2020/12/19 00:43:48;;;;;;;6.77;5.87;;;13.90;97.30;;;14.53;50.52;101234.09;4861780;28;97626;-60
2020/12/19 00:46:16;;;;;;;7.07;5.63;;;14.00;97.40;;;14.24;53.21;101242.38;4849117;28;100287;-59
2020/12/19 00:48:43;;;;;;;2.60;2.40;;;13.70;99.20;;;14.53;53.10;101233.22;4889306;28;103765;-60
2020/12/19 00:51:21;;;;;;;6.17;5.17;;;13.90;99.90;;;14.35;53.29;101224.22;4894913;28;97384;-60
2020/12/19 00:53:49;;;;;;;4.17;3.23;;;13.70;98.70;;;14.56;51.70;101227.78;4871649;28;98414;-60
2020/12/19 00:56:21;;;;;;;4.77;4.33;;;14.00;98.30;;;14.69;52.43;101218.34;4862150;28;97620;-60
2020/12/19 00:58:48;;;;;;;6.17;5.40;;;14.20;98.90;;;14.73;49.54;101216.41;4872609;28;103206;-59
2020/12/19 01:01:16;;;;;;;7.47;5.93;;;14.40;97.20;;;14.71;50.90;101210.31;4861843;28;100400;-59
2020/12/19 01:03:43;;;;;;;7.03;6.10;;;14.30;97.40;;;14.82;49.39;101208.06;4873953;28;98614;-59
2020/12/19 01:06:16;;;;;;;7.83;6.63;;;14.40;97.20;;;14.82;49.39;101203.59;4843720;28;101294;-60
2020/12/19 01:08:49;;;;;;;5.07;4.43;;;14.50;96.40;;;14.90;50.48;101200.63;4850671;28;98303;-59
2020/12/19 01:11:17;;;;;;;5.93;5.33;;;14.50;97.70;;;15.08;50.98;101201.56;4845357;28;98319;-59
2020/12/19 01:13:44;;;;;;;9.10;7.07;;;14.70;97.60;;;14.98;48.47;101203.78;4857960;28;97782;-60
2020/12/19 01:16:15;;;;;;;5.23;4.27;;;14.70;95.90;;;14.91;49.53;101207.66;4846588;28;97613;-60
2020/12/19 01:18:43;;;;;;;5.60;4.93;;;14.50;97.00;;;14.79;50.25;101211.72;4882786;28;98393;-60
2020/12/19 01:21:13;;;;;;;4.80;4.40;;;14.40;97.40;;;14.75;51.94;101206.59;4849091;28;103350;-59
2020/12/19 01:23:39;;;;;;;5.60;4.77;;;14.20;98.20;;;14.76;51.70;101198.56;4877728;28;97452;-60
2020/12/19 01:26:06;;;;;;;6.07;5.47;;;14.20;98.60;;;14.84;51.48;101200.88;4857684;28;98221;-59
2020/12/19 01:28:33;;;;;;;6.10;4.97;;;14.40;97.80;;;14.87;51.08;101200.72;4875452;28;99915;-60
2020/12/19 01:31:08;;;;;;;4.43;3.40;;;14.40;97.80;;;15.00;51.72;101185.09;4856467;28;99368;-60
2020/12/19 01:33:35;;;;;;;5.40;4.70;;;14.50;98.50;;;15.13;51.19;101192.44;4862910;28;98477;-60
2020/12/19 01:36:02;;;;;;;2.77;2.53;;;14.80;97.40;;;15.16;51.24;101188.78;4870920;28;99049;-59
2020/12/19 01:38:28;;;;;;;5.83;5.30;;;14.80;98.20;;;15.02;51.35;101194.72;4862221;28;97069;-59
2020/12/19 01:40:56;;;;;;;2.57;2.20;;;14.60;97.00;;;15.24;51.21;101191.94;4862141;28;97771;-60
2020/12/19 01:43:24;;;;;;;8.83;6.07;;;14.80;98.20;;;15.23;48.07;101200.88;4857840;28;98936;-60
2020/12/19 01:45:50;;;;;;;3.90;3.53;;;14.90;96.40;;;15.56;50.00;101200.19;4876458;28;98007;-60
2020/12/19 01:48:22;;;;;;;3.03;2.73;;;15.30;96.90;;;15.64;48.96;101192.78;4842298;28;98092;-60
2020/12/19 01:50:49;;;;;;;6.60;5.63;;;15.40;95.60;;;15.59;49.82;101187.66;4878801;28;97997;-60
2020/12/19 01:53:24;;;;;;;4.70;3.90;;;15.30;95.80;;;15.53;50.14;101185.25;4840523;28;97100;-60
2020/12/19 01:55:53;;;;;;;5.90;5.33;;;15.10;96.70;;;15.56;46.94;101190.44;4873496;28;119650;-60
2020/12/19 01:58:19;;;;;;;6.83;6.20;;;15.20;95.80;;;15.64;48.04;101183.00;4855750;28;99681;-60
2020/12/19 02:00:45;;;;;;;4.80;4.37;;;15.40;95.40;;;15.77;49.72;101188.59;4873080;28;116289;-60
2020/12/19 02:03:11;;;;;;;3.80;3.47;;;15.50;96.30;;;15.59;49.97;101190.31;4862299;28;110312;-59
2020/12/19 02:05:42;;;;;;;6.87;6.23;;;15.30;96.50;;;15.52;50.24;101188.00;4871572;28;103015;-60
2020/12/19 02:08:08;;;;;;;5.80;4.37;;;15.20;96.80;;;15.61;49.95;101183.13;4876592;28;98766;-60
2020/12/19 02:10:35;;;;;;;2.73;2.43;;;15.30;96.70;;;15.58;50.17;101183.22;4838870;28;96570;-59
2020/12/19 02:13:02;;;;;;;3.33;3.03;;;15.30;96.90;;;15.62;49.60;101178.66;4876082;28;99057;-59
2020/12/19 02:15:43;;;;;;;7.17;6.47;;;15.30;96.30;;;15.64;49.94;101171.50;4856234;28;100050;-59
2020/12/19 02:18:10;;;;;;;2.50;2.30;;;15.40;96.40;;;15.83;49.74;101177.63;4877656;28;99765;-60
2020/12/19 02:20:37;;;;;;;2.53;2.33;;;15.60;96.90;;;15.97;49.30;101171.63;4844620;28;97872;-60
2020/12/19 02:23:05;;;;;;;3.03;2.40;;;15.80;96.50;;;16.00;48.91;101176.78;4881679;28;98970;-60
2020/12/19 02:25:37;;;;;;;4.43;4.03;;;15.90;95.30;;;15.95;48.09;101168.19;4848431;28;99374;-59
2020/12/19 02:28:08;;;;;;;4.20;3.73;;;15.80;94.80;;;15.94;49.16;101163.81;4877665;28;99929;-59
2020/12/19 02:30:37;;;;;;;4.03;3.73;;;15.70;95.70;;;15.94;47.48;101167.31;4849468;28;98583;-60
2020/12/19 02:33:04;;;;;;;9.97;7.57;;;15.80;94.80;;;15.79;46.38;101161.91;4876996;28;97465;-60
2020/12/19 02:35:30;;;;;;;3.53;3.23;;;15.70;94.20;;;15.77;49.11;101156.66;4860810;28;98588;-59
2020/12/19 02:37:56;;;;;;;5.07;4.57;;;15.50;96.10;;;15.89;49.03;101149.84;4878784;28;99726;-60
2020/12/19 02:40:22;;;;;;;2.70;2.50;;;15.60;95.70;;;16.00;47.36;101158.16;4864086;28;102666;-59
2020/12/19 02:42:48;;;;;;;4.83;4.33;;;15.80;95.30;;;16.04;49.02;101154.41;4880341;28;103033;-60
2020/12/19 02:45:14;;;;;;;5.23;4.73;;;15.90;95.60;;;16.17;48.29;101155.50;4874095;28;97826;-60
2020/12/19 02:47:40;;;;;;;5.20;4.70;;;16.10;94.90;;;16.27;48.39;101140.78;4863473;28;105179;-60
2020/12/19 02:50:07;;;;;;;5.70;5.10;;;16.20;94.70;;;16.18;45.86;101146.56;4860055;28;98048;-59
2020/12/19 02:52:33;;;;;;;2.93;2.73;;;16.20;93.90;;;16.03;47.12;101150.03;4865198;28;99241;-60
2020/12/19 02:54:59;;;;;;;5.50;4.53;;;15.90;94.70;;;16.08;48.41;101150.66;4891367;28;98999;-60
2020/12/19 02:57:25;;;;;;;4.67;4.10;;;15.90;95.20;;;15.89;49.53;101150.72;4862731;28;121653;-59
2020/12/19 02:59:51;;;;;;;5.23;4.73;;;15.60;96.20;;;15.76;49.54;101150.44;4878746;28;105273;-60
2020/12/19 03:02:17;;;;;;;7.63;6.90;;;15.50;95.70;;;15.53;48.16;101148.03;4845615;28;103820;-60
2020/12/19 03:04:42;;;;;;;6.63;6.03;;;15.20;95.60;;;15.64;48.58;101153.75;4880804;28;107725;-60
2020/12/19 03:07:08;;;;;;;7.60;6.83;;;15.30;95.40;;;15.42;49.17;101150.34;4846204;28;98249;-60
2020/12/19 03:09:34;;;;;;;7.10;6.27;;;15.10;95.90;;;15.46;47.49;101146.59;4876599;28;97366;-60
2020/12/19 03:12:01;;;;;;;6.53;5.93;;;15.10;95.70;;;15.45;49.38;101147.53;4865095;28;98135;-60
2020/12/19 03:14:26;;;;;;;3.30;3.00;;;15.10;96.00;;;15.48;50.43;101145.63;4872836;28;100238;-59
2020/12/19 03:16:52;;;;;;;11.60;8.77;;;15.10;97.20;;;15.39;49.26;101138.06;4877313;28;117175;-59
2020/12/19 03:19:18;;;;;;;3.67;3.33;;;15.10;95.90;;;15.42;50.32;101145.88;4890922;28;98255;-60
2020/12/19 03:21:44;;;;;;;3.20;2.87;;;15.00;96.90;;;15.60;50.37;101138.84;4862212;28;96546;-59
2020/12/19 03:24:09;;;;;;;8.93;8.07;;;15.30;97.10;;;15.59;48.89;101142.44;4849805;28;103562;-60
2020/12/19 03:26:35;;;;;;;3.20;2.23;;;15.40;95.40;;;15.60;50.27;101138.84;4876453;28;98186;-60
2020/12/19 03:29:01;;;;;;;9.30;8.37;;;15.30;96.80;;;15.47;48.25;101133.22;4862116;28;97814;-59
2020/12/19 03:31:27;;;;;;;9.93;8.57;;;15.20;95.10;;;15.27;48.23;101143.09;4879777;28;97062;-60
2020/12/19 03:33:53;;;;;;;7.00;6.30;;;15.00;95.40;;;15.17;49.93;101140.88;4859859;28;100311;-60
2020/12/19 03:36:20;;;;;;;7.03;6.33;;;14.70;96.40;;;15.14;50.84;101134.84;4883310;28;98909;-60
2020/12/19 03:38:46;;;;;;;10.90;9.73;;;14.60;96.70;;;15.06;48.75;101132.56;4841096;28;107447;-60
2020/12/19 03:41:11;;;;;;;3.83;3.53;;;14.60;96.20;;;15.24;51.12;101129.97;4880944;28;109404;-58
2020/12/19 03:43:37;;;;;;;2.87;2.60;;;14.70;98.10;;;15.31;51.16;101131.38;4862551;28;97596;-59
2020/12/19 03:46:03;;;;;;;9.57;8.17;;;14.90;97.50;;;15.26;48.38;101128.09;4878066;28;99613;-60
2020/12/19 03:48:29;;;;;;;5.67;5.13;;;15.00;95.60;;;15.09;48.98;101127.09;4865459;28;98746;-59
2020/12/19 03:50:55;;;;;;;2.80;2.60;;;14.60;96.70;;;15.21;51.29;101125.66;4874039;28;97378;-60
2020/12/19 03:53:21;;;;;;;3.30;3.00;;;14.70;97.80;;;15.13;51.39;101131.34;4879129;28;98009;-60
2020/12/19 03:55:47;;;;;;;9.30;8.37;;;14.70;97.80;;;14.94;51.07;101126.97;4862330;28;99095;-60
2020/12/19 03:58:13;;;;;;;5.70;4.10;;;14.40;97.40;;;14.98;51.89;101129.38;4854706;28;115748;-60
2020/12/19 04:00:38;;;;;;;7.00;6.30;;;14.40;98.00;;;14.80;49.83;101119.63;4863367;28;103249;-59
2020/12/19 04:03:04;;;;;;;3.30;3.00;;;14.30;97.40;;;14.61;51.20;101124.03;4875244;28;99736;-60
2020/12/19 04:05:30;;;;;;;2.70;2.50;;;14.00;98.00;;;14.92;52.16;101124.38;4850333;28;99749;-60
2020/12/19 04:07:56;;;;;;;2.90;2.70;;;14.30;99.20;;;15.00;51.83;101116.91;4878673;28;97231;-60
2020/12/19 04:10:22;;;;;;;7.17;6.47;;;14.50;98.70;;;14.79;49.83;101133.84;4861704;28;99015;-60
2020/12/19 04:12:47;;;;;;;4.80;4.40;;;14.40;97.50;;;14.77;52.00;101133.03;4877435;28;103064;-60
2020/12/19 04:15:13;;;;;;;9.90;8.63;;;14.20;98.60;;;14.65;49.70;101120.31;4862828;28;96811;-59
2020/12/19 04:17:39;;;;;;;7.90;6.83;;;14.20;97.50;;;14.44;50.92;101122.97;4877501;28;96943;-60
2020/12/19 04:20:08;;;;;;;3.17;2.87;;;13.90;97.80;;;14.66;52.94;101116.72;4866634;28;97252;-60
2020/12/19 04:22:35;;;;;;;7.23;6.53;;;13.90;99.90;;;14.71;51.68;101104.09;4874531;28;99983;-60
2020/12/19 04:25:00;;;;;;;9.60;8.57;;;14.20;97.70;;;14.56;51.94;101106.50;4878696;28;98326;-60
2020/12/19 04:27:27;;;;;;;6.20;5.60;;;14.00;98.00;;;14.64;50.17;101097.34;4857311;28;98098;-60
2020/12/19 04:29:52;;;;;;;3.27;2.97;;;14.10;98.10;;;14.85;49.88;101101.66;4863818;28;98706;-60
2020/12/19 04:32:18;;;;;;;6.20;4.87;;;14.40;97.10;;;14.69;49.26;101101.50;4878300;28;102957;-60
2020/12/19 04:34:44;;;;;;;8.57;7.67;;;14.30;97.30;;;14.71;49.79;101098.78;4889480;28;99958;-60
2020/12/19 04:37:10;;;;;;;10.30;7.67;;;14.30;97.10;;;14.64;52.13;101097.34;4858809;28;99943;-60
2020/12/19 04:39:36;;;;;;;8.07;7.17;;;14.10;98.00;;;14.51;49.76;101097.91;4869734;28;96907;-59
2020/12/19 04:42:01;;;;;;;4.87;4.37;;;14.00;97.40;;;14.63;51.68;101098.28;4857143;28;103584;-60
2020/12/19 04:44:27;;;;;;;6.27;5.63;;;14.00;98.70;;;14.49;52.43;101097.13;4861826;28;98806;-60
2020/12/19 04:46:54;;;;;;;10.10;8.73;;;13.90;98.70;;;14.50;52.53;101096.19;4858572;28;97875;-60
2020/12/19 04:49:20;;;;;;;8.90;8.00;;;13.80;98.90;;;14.31;51.78;101100.53;4857938;28;100740;-60
2020/12/19 04:51:46;;;;;;;6.23;5.67;;;13.70;98.00;;;14.29;53.36;101091.78;4862814;28;100052;-59
2020/12/19 04:54:12;;;;;;;9.17;7.77;;;13.60;99.40;;;14.28;52.93;101090.91;4873595;28;98301;-60
2020/12/19 04:56:38;;;;;;;8.90;8.03;;;13.60;98.80;;;14.39;52.43;101092.25;4869985;28;106646;-60
2020/12/19 04:59:05;;;;;;;9.20;8.23;;;13.70;99.00;;;14.29;50.77;101091.78;4838039;28;99377;-60
2020/12/19 05:01:34;;;;;;;10.70;9.20;;;13.70;98.70;;;14.19;51.57;101082.53;4870167;28;98887;-59
2020/12/19 05:03:59;;;;;;;10.47;8.00;;;13.60;98.20;;;14.10;51.90;101091.72;4857030;28;97574;-59
2020/12/19 05:06:28;;;;;;;9.67;8.63;;;13.50;98.70;;;14.12;53.47;101091.66;4872329;28;103132;-59
2020/12/19 05:08:56;;;;;;;12.00;10.50;;;13.40;99.60;;;14.04;52.98;101093.81;4875009;28;98854;-59
2020/12/19 05:11:25;;;;;;;8.33;7.53;;;13.40;98.70;;;13.89;52.24;101092.66;4884174;28;100589;-60
2020/12/19 05:13:51;;;;;;;8.90;8.00;;;13.30;99.70;;;14.03;54.07;101094.69;4857790;28;99521;-59
2020/12/19 05:16:18;;;;;;;11.57;10.17;;;13.30;99.90;;;13.88;52.42;101102.38;4870138;28;97620;-59
2020/12/19 05:18:44;;;;;;;9.87;7.27;;;13.30;99.30;;;13.74;52.19;101103.88;4856831;28;97007;-60
2020/12/19 05:21:13;;;;;;;5.40;4.90;;;13.20;99.20;;;13.88;55.05;101094.44;4869930;28;99690;-60
2020/12/19 05:23:42;;;;;;;6.07;5.47;;;13.20;99.90;;;14.04;54.87;101096.47;4839790;28;106706;-60
2020/12/19 05:26:12;;;;;;;5.07;4.57;;;13.40;99.90;;;14.09;54.43;101090.00;4885934;28;97762;-59
2020/12/19 05:28:41;;;;;;;7.23;6.17;;;13.50;99.90;;;14.36;53.52;101093.25;4836866;28;97369;-60
2020/12/19 05:31:08;;;;;;;6.30;5.70;;;13.90;99.10;;;14.47;52.93;101080.41;4872550;28;97602;-59
2020/12/19 05:33:42;;;;;;;9.70;8.77;;;14.10;98.90;;;14.50;52.88;101085.56;4864829;28;98994;-59
2020/12/19 05:36:21;;;;;;;3.60;3.30;;;14.10;97.90;;;14.72;52.68;101080.13;4858652;28;103086;-59
2020/12/19 05:38:48;;;;;;;9.27;8.30;;;14.20;99.20;;;14.72;51.80;101081.91;4866906;28;99386;-59
2020/12/19 05:41:23;;;;;;;7.10;6.27;;;14.40;97.70;;;14.71;50.54;101077.53;4864465;28;105388;-60
2020/12/19 05:43:50;;;;;;;5.57;5.07;;;14.30;97.40;;;14.94;49.84;101082.66;4882421;28;103637;-60
2020/12/19 05:46:40;;;;;;;7.63;6.83;;;14.60;97.40;;;14.67;49.93;101086.59;4871367;28;109277;-59
2020/12/19 05:49:09;;;;;;;7.00;6.40;;;14.20;97.50;;;14.74;51.67;101085.38;4884383;28;98445;-59
2020/12/19 05:51:40;;;;;;;6.73;5.57;;;14.20;97.80;;;14.78;49.40;101071.03;4873476;28;98317;-59
2020/12/19 05:54:11;;;;;;;6.50;5.90;;;14.40;97.00;;;15.00;51.45;101074.38;4887789;28;98086;-60
2020/12/19 05:56:45;;;;;;;3.50;3.20;;;14.60;98.40;;;15.27;51.19;101071.34;4863180;28;98532;-64
2020/12/19 05:59:17;;;;;;;8.83;7.93;;;14.90;98.00;;;15.41;49.91;101068.88;4869869;28;98589;-60
2020/12/19 06:01:48;;;;;;;7.20;6.50;;;15.20;96.20;;;15.51;50.05;101067.50;4864337;28;99528;-60
2020/12/19 06:04:16;;;;;;;3.57;3.27;;;15.40;96.40;;;15.59;49.03;101062.69;4907347;28;98531;-60
2020/12/19 06:06:46;;;;;;;7.50;6.83;;;15.40;96.60;;;15.59;48.66;101061.78;4877556;28;96997;-60
2020/12/19 06:09:14;;;;;;;3.77;3.47;;;15.40;95.60;;;15.65;49.82;101061.53;4883677;28;97728;-60
2020/12/19 06:12:00;;;;;;;4.13;3.73;;;15.50;96.30;;;15.52;49.04;101055.06;4852853;28;104355;-60
2020/12/19 06:14:35;;;;;;;3.57;3.27;;;15.20;96.70;;;15.65;50.01;101041.13;4868364;28;103134;-60
2020/12/19 06:17:15;;;;;;;7.73;6.87;;;15.40;96.90;;;15.56;50.02;101027.38;4872389;28;96549;-60
2020/12/19 06:19:43;;;;;;;3.80;3.50;;;15.30;96.30;;;15.44;47.72;101026.19;4889253;28;96991;-59
2020/12/19 06:22:09;;;;;;;8.07;7.30;;;15.10;96.30;;;15.11;48.83;101050.84;4868471;28;99844;-59
2020/12/19 06:24:48;;;;;;;6.70;6.17;;;14.80;96.30;;;14.96;49.50;101046.25;4869822;28;99098;-60
2020/12/19 06:27:23;;;;;;;4.50;4.10;;;14.50;97.10;;;14.95;50.30;101043.69;4871313;28;97058;-60
2020/12/19 06:29:50;;;;;;;8.33;7.43;;;14.30;97.90;;;14.81;49.56;101044.31;4891509;28;96955;-60
2020/12/19 06:32:42;;;;;;;3.87;3.57;;;14.40;97.10;;;14.94;49.42;101037.50;4868484;28;100384;-59
2020/12/19 06:35:10;;;;;;;7.20;5.83;;;14.50;97.40;;;14.92;51.98;101050.00;4867012;28;98577;-60
2020/12/19 06:37:41;;;;;;;7.53;6.13;;;14.40;98.30;;;15.07;50.98;101043.97;4879091;28;96943;-60
2020/12/19 06:40:19;;;;;;;3.33;3.00;;;14.70;97.30;;;15.20;49.80;101048.69;4877821;28;97385;-60
2020/12/19 06:42:47;;;;;;;4.97;4.57;;;14.90;97.70;;;15.31;48.47;101041.03;4888190;28;102915;-59
2020/12/19 06:45:29;;;;;;;9.40;8.47;;;15.10;96.30;;;15.37;50.75;101051.38;4891568;28;98877;-60
2020/12/19 06:47:56;;;;;;;5.07;4.60;;;15.10;97.20;;;15.23;48.46;101048.53;4853255;28;101841;-60
2020/12/19 06:50:23;;;;;;;5.43;4.53;;;14.90;96.50;;;15.23;50.94;101054.69;4892911;28;96909;-60
2020/12/19 06:52:58;;;;;;;4.60;4.10;;;14.90;97.60;;;15.15;51.41;101055.06;4861081;28;96826;-60
2020/12/19 06:55:29;;;;;;;9.20;8.40;;;14.70;98.10;;;15.27;49.82;101055.41;4875122;28;98317;-60
2020/12/19 06:57:57;;;;;;;4.33;3.93;;;15.00;96.80;;;15.41;48.91;101055.59;4887413;28;96793;-60
2020/12/19 07:00:30;;;;;;;6.03;5.50;;;15.10;96.70;;;15.35;48.59;101050.59;4876614;28;96910;-60
2020/12/19 07:03:01;;;;;;;5.70;4.23;;;15.20;96.20;;;15.43;50.01;101049.25;4888583;28;98110;-60
2020/12/19 07:05:28;;;;;;;8.00;7.10;;;15.20;96.80;;;15.47;50.37;101048.16;4863712;28;99537;-59
2020/12/19 07:08:18;;;;;;;4.47;3.80;;;15.30;96.80;;;15.51;50.34;101043.56;4883674;28;97020;-60
2020/12/19 07:10:44;;;;;;;10.07;9.07;;;15.20;97.50;;;15.41;47.88;101036.97;4869833;28;97072;-60
2020/12/19 07:13:11;;;;;;;3.90;3.53;;;15.20;95.80;;;15.63;48.17;101027.03;4874950;28;103529;-60
2020/12/19 07:15:52;;;;;;;3.47;3.17;;;15.40;96.60;;;15.92;47.51;101032.66;4868942;28;99231;-60
2020/12/19 07:18:26;;;;;;;8.23;6.27;;;15.80;95.60;;;15.99;47.70;101039.38;4876041;28;98468;-60
2020/12/19 07:21:10;;;;;;;7.53;6.83;;;16.00;94.40;;;16.05;49.33;101045.22;4891940;28;96880;-59
2020/12/19 07:23:38;;;;;;;6.47;5.83;;;15.90;95.90;;;16.00;47.11;101055.25;4896357;28;101764;-60
2020/12/19 07:26:06;;;;;;;5.73;5.10;;;16.00;94.60;;;15.94;49.47;101057.38;5044260;23;100099;-62
2020/12/19 07:28:32;;;;;;;5.53;5.03;;;15.80;96.10;;;15.70;49.89;101070.13;4924256;28;97349;-62
2020/12/19 07:30:58;;;;;;;5.10;4.63;;;15.40;96.60;;;15.63;47.97;101063.41;4885507;28;98590;-62
2020/12/19 07:33:24;;;;;;;6.27;5.73;;;15.40;95.90;;;15.47;49.89;101068.56;4897635;28;99501;-62
2020/12/19 07:35:51;;;;;;;4.73;3.70;;;15.20;96.70;;;15.70;48.54;101081.63;4876327;28;99581;-62
2020/12/19 07:38:21;;;;;;;9.03;8.23;;;15.40;96.10;;;15.55;48.25;101087.66;4913694;28;98159;-62
2020/12/19 07:40:56;;;;;;;6.03;5.43;;;15.40;95.50;;;15.58;49.52;101087.50;4903593;28;97532;-61
2020/12/19 07:43:24;;;;;;;9.70;8.70;;;15.20;96.70;;;15.43;49.99;101083.81;4912639;28;98743;-61
2020/12/19 07:45:56;;;;;;;9.87;8.80;;;15.10;96.50;;;15.32;50.06;101086.13;4900400;28;119168;-59
2020/12/19 07:48:22;;;;;;;3.73;3.43;;;14.90;97.00;;;15.50;50.67;101095.03;4897621;28;98573;-60
2020/12/19 07:50:48;;;;;;;6.83;6.23;;;15.00;97.80;;;15.59;49.91;101094.59;4903958;28;96962;-60
2020/12/19 07:53:14;;;;;;;6.33;5.63;;;15.20;96.60;;;15.70;49.77;101100.22;4905836;28;120875;-61
2020/12/19 07:55:49;;;;;;;4.47;3.77;;;15.40;96.40;;;15.84;47.44;101096.03;4929949;28;107838;-59
2020/12/19 07:58:17;;;;;;;3.13;2.93;;;15.70;95.30;;;15.91;48.38;101090.34;4897827;28;104753;-59
2020/12/19 08:00:42;;;;;;;3.70;3.40;;;15.70;96.20;;;15.97;48.85;101090.00;4910457;28;97292;-60
2020/12/19 08:03:12;;;;;;;3.77;3.47;;;15.70;96.30;;;16.18;49.07;101082.69;4903189;28;97638;-60
2020/12/19 08:05:38;;;;;;;4.07;3.70;;;16.00;95.80;;;16.25;46.94;101084.13;4912320;28;102446;-61
2020/12/19 08:08:04;;;;;;;3.67;3.33;;;16.20;94.90;;;16.33;48.35;101071.25;4891962;28;109807;-61
2020/12/19 08:10:29;;;;;;;3.20;2.90;;;16.30;95.40;;;16.45;48.20;101075.06;4929475;28;97036;-60
2020/12/19 08:12:55;;;;;;;3.37;3.07;;;16.40;95.20;;;16.57;47.85;101084.22;4881530;28;115517;-60
2020/12/19 08:15:23;;;;;;;3.40;3.10;;;16.50;94.50;;;16.68;47.32;101079.19;4916200;28;99871;-60
2020/12/19 08:18:02;;;;;;;10.13;8.57;;;16.70;94.00;;;16.66;46.31;101067.75;4898142;28;99334;-60
2020/12/19 08:20:36;;;;;;;9.73;8.80;;;16.70;93.00;;;16.31;46.93;101082.91;4930921;28;98054;-61
2020/12/19 08:23:07;;;;;;;5.63;4.73;;;16.20;94.50;;;16.04;49.36;101079.91;4908112;28;97863;-61
2020/12/19 08:25:34;;;;;;;5.77;4.70;;;15.70;96.20;;;16.12;46.68;101075.06;4915393;28;99095;-62
2020/12/19 08:28:00;;;;;;;4.80;4.13;;;15.90;94.60;;;16.25;48.07;101068.16;4890172;28;97383;-61
2020/12/19 08:30:32;;;;;;;5.67;4.97;;;16.00;94.80;;;16.32;48.54;101058.88;4900906;28;96779;-61
2020/12/19 08:33:03;;;;;;;4.13;2.97;;;16.10;94.90;;;16.31;48.13;101051.84;4901290;28;98751;-63
2020/12/19 08:35:59;;;;;;;3.70;3.40;;;16.10;95.50;;;16.36;46.57;101043.63;4926989;28;103279;-63
2020/12/19 08:38:26;;;;;;;4.50;4.10;;;16.30;94.30;;;16.29;48.39;101035.09;4901486;28;98454;-62
2020/12/19 08:40:56;;;;;;;5.87;4.77;;;16.20;95.10;;;16.34;48.57;101025.03;4914399;28;96967;-62
2020/12/19 08:43:32;;;;;;;5.67;4.87;;;16.20;95.20;;;16.44;47.04;101024.56;4898818;28;100876;-63
2020/12/19 08:46:12;;;;;;;7.47;6.67;;;16.30;94.90;;;16.34;47.10;101025.03;4917385;28;99458;-63
2020/12/19 08:48:40;;;;;;;4.00;3.60;;;16.30;94.00;;;16.50;48.31;101034.91;4897401;28;99629;-63
2020/12/19 08:51:11;;;;;;;3.60;3.30;;;16.40;95.00;;;16.31;46.90;101051.84;4894690;28;96602;-63
2020/12/19 08:53:37;;;;;;;6.57;5.60;;;16.20;94.70;;;16.20;47.18;101043.59;4906529;28;100822;-63
2020/12/19 08:56:15;;;;;;;9.53;8.53;;;16.10;94.40;;;16.09;48.67;101040.63;4913932;28;99960;-63
2020/12/19 08:58:41;;;;;;;9.53;8.63;;;15.90;95.40;;;15.83;48.61;101049.09;4907427;28;97265;-63
2020/12/19 09:01:16;;;;;;;9.97;8.90;;;15.60;95.70;;;15.69;49.43;101057.78;4884295;28;97286;-62
2020/12/19 09:03:43;;;;;;;7.03;5.87;;;15.30;96.30;;;15.58;49.06;101055.59;4906027;28;98328;-63
2020/12/19 09:06:12;;;;;;;10.40;8.77;;;15.20;96.70;;;15.32;51.04;101067.53;4913233;28;102026;-62
2020/12/19 09:08:42;;;;;;;7.73;6.93;;;14.90;97.50;;;15.35;51.03;101061.22;4921237;28;97651;-61
2020/12/19 09:11:22;;;;;;;9.30;7.17;;;14.90;97.80;;;15.37;51.27;101072.63;4896186;28;97377;-61
2020/12/19 09:13:48;;;;;;;5.17;4.67;;;14.90;97.90;;;15.31;50.69;101073.78;4910728;28;100661;-63
2020/12/19 09:16:14;;;;;;;4.03;3.70;;;14.90;97.60;;;15.29;51.02;101074.78;4916907;28;99261;-61
2020/12/19 09:18:40;;;;;;;5.23;3.70;;;14.90;97.90;;;15.32;51.78;101074.63;4921387;28;96761;-63
2020/12/19 09:21:11;;;;;;;7.17;6.47;;;14.80;98.50;;;15.18;51.26;101088.59;4902739;28;96880;-59
2020/12/19 09:23:37;;;;;;;4.03;3.43;;;14.80;97.90;;;15.18;51.80;101083.28;4916051;28;98430;-62
2020/12/19 09:26:05;;;;;;;9.57;7.93;;;14.70;98.60;;;15.21;51.17;101092.91;4906867;28;97632;-62
2020/12/19 09:28:32;;;;;;;6.13;4.53;;;14.90;97.60;;;15.41;51.28;101084.81;4918277;28;97332;-60
2020/12/19 09:30:58;;;;;;;4.93;4.37;;;15.00;98.10;;;15.35;50.59;101085.13;4911642;28;96904;-61
2020/12/19 09:33:25;;;;;;;9.47;8.10;;;15.00;97.40;;;15.28;51.08;101081.03;4914378;28;99656;-61
2020/12/19 09:35:51;;;;;;;8.87;7.83;;;15.00;97.40;;;15.43;50.81;101085.59;4900310;28;99615;-61
2020/12/19 09:38:17;;;;;;;6.47;5.47;;;15.20;97.10;;;15.27;50.78;101088.16;4897916;28;98815;-61
2020/12/19 09:40:43;;;;;;;5.93;5.23;;;15.00;97.80;;;15.11;51.70;101088.03;4900646;28;96885;-61
2020/12/19 09:43:09;;;;;;;5.47;4.40;;;14.80;98.20;;;15.17;51.35;101082.41;4891432;28;100558;-60
2020/12/19 09:45:36;;;;;;;5.30;4.80;;;14.80;97.90;;;15.24;50.31;101082.13;4897984;28;99173;-61
2020/12/19 09:48:03;;;;;;;4.40;3.70;;;14.90;97.70;;;15.42;50.72;101087.41;4900652;28;97930;-60
2020/12/19 09:50:29;;;;;;;6.03;5.43;;;15.10;98.00;;;15.62;50.77;101081.16;4909234;28;98082;-61
2020/12/19 09:52:56;;;;;;;8.57;7.60;;;15.40;97.10;;;15.79;49.67;101084.78;4904055;28;98907;-60
2020/12/19 09:55:23;;;;;;;3.87;3.53;;;15.70;96.30;;;15.93;50.04;101082.28;4910399;28;98934;-61
2020/12/19 09:57:49;;;;;;;9.10;7.17;;;15.80;96.30;;;16.03;48.58;101078.19;4917065;28;100539;-60
2020/12/19 10:00:16;;;;;;;3.43;3.13;;;16.10;95.20;;;16.31;49.05;101067.81;4911061;28;97084;-61
2020/12/19 10:02:46;;;;;;;3.30;3.00;;;16.30;95.80;;;16.52;48.26;101078.28;4899522;28;97100;-60
2020/12/19 10:05:12;;;;;;;3.60;3.30;;;16.60;95.10;;;16.65;48.10;101066.03;4914647;28;97240;-60
2020/12/19 10:07:38;;;;;;;5.00;3.43;;;16.80;94.50;;;16.81;47.80;101077.59;4885268;28;97131;-60
2020/12/19 10:10:06;;;;;;;4.90;3.07;;;17.10;94.20;;;16.97;47.29;101072.28;4915256;28;97062;-60
2020/12/19 10:12:36;;;;;;;6.00;4.23;;;17.30;93.90;;;17.08;46.88;101064.53;4894463;28;99910;-60
2020/12/19 10:15:06;;;;;;;4.00;3.17;;;17.40;93.40;;;17.16;46.88;101061.44;4854341;28;99307;-60
2020/12/19 10:17:32;;;;;;;4.40;3.47;;;17.40;93.50;;;17.24;46.54;101060.06;4907684;28;97120;-60